Time;durP1;ratioP1;P1;durP2;ratioP2;P2;SDS_P1;SDS_P2;PMS_P1;PMS_P2;Temp;Humidity;BMP_temperature;BMP_pressure;BME280_temperature;BME280_humidity;BME280_pressure;Samples;Min_cycle;Max_cycle;Signal;HPM_P1;HPM_P2
2021/08/07 00:01:18;;;;;;;5.82;2.10;;;18.40;99.60;;;;;;5050947;28;20043;-73
2021/08/07 00:03:44;;;;;;;3.83;2.20;;;18.40;99.40;;;;;;5050992;28;20040;-73
2021/08/07 00:06:10;;;;;;;3.60;2.10;;;18.40;99.30;;;;;;5051438;28;20068;-73
2021/08/07 00:08:36;;;;;;;6.10;2.30;;;18.40;99.30;;;;;;5050826;28;20422;-73
2021/08/07 00:11:02;;;;;;;7.40;1.88;;;18.40;99.30;;;;;;5049921;28;20043;-74
2021/08/07 00:13:28;;;;;;;3.58;2.38;;;18.40;99.20;;;;;;5050805;28;20037;-75
2021/08/07 00:15:53;;;;;;;3.95;2.28;;;18.40;99.00;;;;;;5049615;28;20189;-74
2021/08/07 00:18:19;;;;;;;5.78;2.63;;;18.40;99.00;;;;;;5050922;28;20040;-74
2021/08/07 00:20:44;;;;;;;6.47;2.53;;;18.50;98.90;;;;;;5051481;28;20028;-74
2021/08/07 00:23:10;;;;;;;5.45;2.67;;;18.50;98.90;;;;;;5050721;28;20352;-73
2021/08/07 00:25:36;;;;;;;5.25;2.80;;;18.50;98.80;;;;;;5050819;28;20355;-74
2021/08/07 00:28:01;;;;;;;4.38;2.72;;;18.50;98.80;;;;;;5050960;28;20156;-75
2021/08/07 00:30:27;;;;;;;6.18;2.67;;;18.50;98.60;;;;;;5050725;28;20362;-74
2021/08/07 00:32:52;;;;;;;4.25;2.63;;;18.60;98.80;;;;;;5051147;28;20033;-73
2021/08/07 00:35:18;;;;;;;6.03;2.30;;;18.50;98.70;;;;;;5050867;28;20029;-73
2021/08/07 00:37:44;;;;;;;5.03;2.38;;;18.50;98.60;;;;;;5050885;28;20033;-73
2021/08/07 00:40:10;;;;;;;3.80;2.15;;;18.50;98.70;;;;;;5050795;28;20040;-73
2021/08/07 00:42:36;;;;;;;4.63;1.77;;;18.50;98.70;;;;;;5050574;28;20382;-73
2021/08/07 00:45:01;;;;;;;3.92;2.20;;;18.50;98.60;;;;;;5051193;28;20018;-73
2021/08/07 00:47:27;;;;;;;4.57;1.98;;;18.50;98.70;;;;;;5050439;28;20124;-74
2021/08/07 00:49:52;;;;;;;4.35;2.67;;;18.50;98.70;;;;;;5050593;28;20037;-73
2021/08/07 00:52:18;;;;;;;4.88;2.35;;;18.50;98.70;;;;;;5050549;28;20454;-75
2021/08/07 00:54:44;;;;;;;4.95;2.70;;;18.50;98.60;;;;;;5050472;28;20120;-73
2021/08/07 00:57:09;;;;;;;4.10;2.53;;;18.50;98.60;;;;;;5050798;28;20025;-74
2021/08/07 00:59:35;;;;;;;3.80;2.15;;;18.50;98.60;;;;;;5050465;28;20529;-73
2021/08/07 01:02:07;;;;;;;7.35;2.90;;;18.50;98.60;;;;;;5050288;28;20344;-73
2021/08/07 01:04:39;;;;;;;3.55;2.20;;;18.50;98.50;;;;;;5050451;28;20052;-73
2021/08/07 01:07:31;;;;;;;5.88;2.47;;;18.50;98.50;;;;;;5051385;28;20029;-74
2021/08/07 01:10:04;;;;;;;5.82;1.80;;;18.40;98.40;;;;;;5053099;28;20029;-73
2021/08/07 01:12:35;;;;;;;3.58;2.08;;;18.40;98.30;;;;;;5054156;28;20363;-74
2021/08/07 01:15:02;;;;;;;4.85;1.70;;;18.50;98.40;;;;;;5054688;28;20024;-74
2021/08/07 01:17:29;;;;;;;4.60;1.67;;;18.50;98.20;;;;;;5054100;28;20032;-74
2021/08/07 01:20:05;;;;;;;4.93;1.85;;;18.50;98.30;;;;;;5054084;28;20266;-74
2021/08/07 01:23:00;;;;;;;2.50;1.70;;;18.50;98.10;;;;;;5054118;28;20183;-74
2021/08/07 01:25:39;;;;;;;4.80;1.77;;;18.50;98.30;;;;;;5051596;28;20040;-74
2021/08/07 01:28:05;;;;;;;4.55;2.83;;;18.50;98.20;;;;;;5053764;28;20056;-73
2021/08/07 01:30:31;;;;;;;4.05;2.58;;;18.50;98.30;;;;;;5053758;28;20049;-73
2021/08/07 01:32:57;;;;;;;3.55;2.25;;;18.50;98.40;;;;;;5053976;28;20143;-73
2021/08/07 01:35:23;;;;;;;3.60;2.40;;;18.50;98.40;;;;;;5048568;28;20120;-74
2021/08/07 01:37:49;;;;;;;2.80;1.60;;;18.50;98.40;;;;;;5032908;28;20480;-74
2021/08/07 01:40:15;;;;;;;4.40;2.35;;;18.50;98.30;;;;;;5033697;28;20488;-74
2021/08/07 01:42:40;;;;;;;4.43;2.10;;;18.40;98.30;;;;;;5033677;28;20135;-73
2021/08/07 01:45:06;;;;;;;4.65;1.88;;;18.50;98.40;;;;;;5034114;28;20028;-74
2021/08/07 01:47:43;;;;;;;3.33;1.52;;;18.40;98.50;;;;;;5033862;28;20041;-73
2021/08/07 01:50:18;;;;;;;3.67;1.50;;;18.40;98.50;;;;;;5033925;28;20030;-74
2021/08/07 01:52:47;;;;;;;6.00;1.65;;;18.40;98.30;;;;;;5033913;28;20102;-75
2021/08/07 01:55:27;;;;;;;3.65;1.25;;;18.40;98.50;;;;;;5033940;28;20041;-74
2021/08/07 01:58:13;;;;;;;3.38;1.42;;;18.30;98.60;;;;;;5033339;28;20486;-74
2021/08/07 02:00:41;;;;;;;1.70;1.20;;;18.30;98.70;;;;;;5033298;28;20026;-74
2021/08/07 02:03:08;;;;;;;;;;;18.30;98.60;;;;;;5033849;28;20025;-74
2021/08/07 02:05:35;;;;;;;1.80;1.17;;;18.30;98.50;;;;;;5033178;28;19913;-74
2021/08/07 02:08:03;;;;;;;1.23;1.10;;;18.20;98.60;;;;;;5033075;28;20026;-74
2021/08/07 02:10:29;;;;;;;1.42;1.10;;;18.20;98.50;;;;;;5032931;28;20041;-74
2021/08/07 02:12:56;;;;;;;2.95;1.17;;;18.20;98.40;;;;;;5032850;28;20037;-74
2021/08/07 02:15:22;;;;;;;2.92;1.45;;;18.20;98.50;;;;;;5033087;28;20513;-74
2021/08/07 02:17:49;;;;;;;4.50;1.55;;;18.10;98.50;;;;;;5032242;28;20517;-74
2021/08/07 02:20:16;;;;;;;1.38;1.00;;;18.10;98.40;;;;;;5033033;28;20080;-74
2021/08/07 02:22:44;;;;;;;4.53;1.43;;;18.10;98.50;;;;;;5032978;28;20054;-73
2021/08/07 02:25:11;;;;;;;;;;;18.20;98.50;;;;;;5033323;28;20040;-73
2021/08/07 02:27:37;;;;;;;3.28;1.20;;;18.10;98.50;;;;;;5032826;28;20331;-73
2021/08/07 02:30:05;;;;;;;5.35;1.38;;;18.10;98.60;;;;;;5033642;28;20032;-73
2021/08/07 02:32:31;;;;;;;1.60;1.23;;;18.00;98.70;;;;;;5032964;28;20033;-74
2021/08/07 02:34:56;;;;;;;4.63;1.50;;;18.00;98.90;;;;;;5033092;28;20363;-74
2021/08/07 02:37:23;;;;;;;2.83;1.30;;;18.00;98.70;;;;;;5032948;28;20067;-75
2021/08/07 02:39:49;;;;;;;3.13;1.55;;;17.90;99.10;;;;;;5032659;28;20438;-75
2021/08/07 02:42:15;;;;;;;3.95;1.48;;;17.80;99.30;;;;;;5031397;28;20103;-73
2021/08/07 02:44:42;;;;;;;1.15;1.08;;;17.80;99.30;;;;;;5033030;28;20340;-74
2021/08/07 02:47:08;;;;;;;7.45;1.30;;;17.80;99.40;;;;;;5032453;28;20034;-73
2021/08/07 02:49:34;;;;;;;3.85;1.52;;;17.70;99.40;;;;;;5032603;28;20475;-73
2021/08/07 02:52:00;;;;;;;1.67;1.20;;;17.70;99.20;;;;;;5032517;28;20124;-75
2021/08/07 02:54:27;;;;;;;5.97;1.33;;;17.70;99.20;;;;;;5032197;28;20439;-75
2021/08/07 02:56:52;;;;;;;1.98;1.52;;;17.60;99.60;;;;;;5032807;28;20033;-73
2021/08/07 02:59:20;;;;;;;1.88;1.50;;;17.60;99.60;;;;;;5032485;28;20033;-74
2021/08/07 03:01:46;;;;;;;10.93;1.70;;;17.60;99.50;;;;;;5031095;28;20087;-73
2021/08/07 03:04:12;;;;;;;4.05;1.25;;;17.60;99.40;;;;;;5032362;28;20475;-73
2021/08/07 03:06:38;;;;;;;1.83;1.50;;;17.50;99.30;;;;;;5032190;28;20068;-73
2021/08/07 03:09:03;;;;;;;2.88;1.52;;;17.50;99.40;;;;;;5032891;28;20383;-73
2021/08/07 03:11:29;;;;;;;3.03;1.35;;;17.50;99.30;;;;;;5031953;28;20040;-73
2021/08/07 03:13:55;;;;;;;3.00;1.58;;;17.50;99.30;;;;;;5031888;28;20511;-74
2021/08/07 03:16:20;;;;;;;2.05;1.20;;;17.50;99.30;;;;;;5032077;28;20428;-74
2021/08/07 03:18:46;;;;;;;4.45;1.38;;;17.40;99.40;;;;;;5031925;28;20099;-73
2021/08/07 03:21:11;;;;;;;1.60;1.13;;;17.40;99.50;;;;;;5032358;28;20037;-72
2021/08/07 03:23:37;;;;;;;1.42;1.20;;;17.40;99.40;;;;;;5031760;28;20471;-73
2021/08/07 03:26:02;;;;;;;7.35;1.58;;;17.40;99.40;;;;;;5031812;28;20041;-75
2021/08/07 03:28:28;;;;;;;1.85;1.48;;;17.40;99.40;;;;;;5031713;28;20040;-73
2021/08/07 03:30:54;;;;;;;2.85;1.00;;;17.40;99.30;;;;;;5030797;28;20030;-73
2021/08/07 03:33:19;;;;;;;1.95;1.30;;;17.30;99.30;;;;;;5031530;28;20567;-73
2021/08/07 03:35:45;;;;;;;1.75;1.33;;;17.30;99.20;;;;;;5031914;28;20025;-74
2021/08/07 03:38:10;;;;;;;1.80;1.15;;;17.30;99.60;;;;;;5030470;28;20375;-74
2021/08/07 03:40:36;;;;;;;1.65;1.20;;;17.30;99.20;;;;;;5030320;28;20041;-73
2021/08/07 03:43:02;;;;;;;4.05;1.27;;;17.30;99.20;;;;;;5031437;28;20033;-73
2021/08/07 03:45:27;;;;;;;4.43;1.60;;;17.30;99.30;;;;;;5031315;28;20032;-72
2021/08/07 03:47:54;;;;;;;4.20;1.63;;;17.30;99.40;;;;;;5031583;28;20029;-75
2021/08/07 03:50:21;;;;;;;3.25;1.50;;;17.30;99.40;;;;;;5031254;28;20036;-73
2021/08/07 03:52:47;;;;;;;3.37;1.30;;;17.30;99.30;;;;;;5031178;28;20029;-73
2021/08/07 03:55:13;;;;;;;1.58;1.27;;;17.20;99.20;;;;;;5031287;28;20050;-74
2021/08/07 03:57:47;;;;;;;2.42;1.35;;;17.20;99.30;;;;;;5030445;28;20329;-73
2021/08/07 04:00:13;;;;;;;3.85;1.38;;;17.30;99.30;;;;;;5030026;28;20032;-74
2021/08/07 04:02:39;;;;;;;2.78;1.40;;;17.30;99.30;;;;;;5031527;28;20100;-73
2021/08/07 04:05:04;;;;;;;3.55;1.20;;;17.30;99.30;;;;;;5031149;28;20501;-74
2021/08/07 04:07:30;;;;;;;2.60;1.42;;;17.30;99.20;;;;;;5031251;28;20107;-74
2021/08/07 04:09:55;;;;;;;4.53;1.35;;;17.30;99.20;;;;;;5030934;28;20095;-72
2021/08/07 04:12:21;;;;;;;4.93;1.13;;;17.30;99.20;;;;;;5030837;28;20413;-73
2021/08/07 04:14:46;;;;;;;4.05;1.40;;;17.30;99.20;;;;;;5031384;28;20503;-73
2021/08/07 04:17:12;;;;;;;2.60;1.48;;;17.30;99.10;;;;;;5030882;28;20040;-72
2021/08/07 04:19:38;;;;;;;2.35;1.33;;;17.30;99.10;;;;;;5030733;28;20450;-73
2021/08/07 04:22:03;;;;;;;2.90;1.38;;;17.40;99.20;;;;;;5030724;28;20050;-73
2021/08/07 04:24:29;;;;;;;2.85;1.30;;;17.30;99.10;;;;;;5030546;28;20033;-74
2021/08/07 04:26:54;;;;;;;2.28;1.50;;;17.40;99.10;;;;;;5031255;28;20036;-72
2021/08/07 04:29:20;;;;;;;6.43;1.60;;;17.40;99.00;;;;;;5030825;28;20026;-74
2021/08/07 04:31:46;;;;;;;1.70;1.50;;;17.40;99.00;;;;;;5030730;28;20120;-73
2021/08/07 04:34:11;;;;;;;3.20;1.20;;;17.40;98.90;;;;;;5030557;28;20049;-73
2021/08/07 04:36:37;;;;;;;2.90;1.30;;;17.50;99.00;;;;;;5030739;28;20038;-73
2021/08/07 04:39:02;;;;;;;1.45;1.00;;;17.40;99.00;;;;;;5031026;28;20033;-74
2021/08/07 04:41:28;;;;;;;3.20;1.70;;;17.50;98.90;;;;;;5032322;28;20025;-73
2021/08/07 04:43:54;;;;;;;1.80;1.30;;;17.50;98.90;;;;;;5034602;28;20042;-73
2021/08/07 04:46:19;;;;;;;5.25;1.60;;;17.50;98.90;;;;;;5034806;28;20037;-72
2021/08/07 04:48:45;;;;;;;2.33;1.80;;;17.50;98.80;;;;;;5034642;28;20025;-71
2021/08/07 04:51:10;;;;;;;6.00;1.25;;;17.50;98.90;;;;;;5035250;28;20048;-72
2021/08/07 04:53:36;;;;;;;6.38;1.60;;;17.60;98.80;;;;;;5033449;28;20336;-72
2021/08/07 04:56:02;;;;;;;4.90;1.38;;;17.60;98.90;;;;;;5034419;28;20025;-72
2021/08/07 04:58:27;;;;;;;1.48;1.15;;;17.60;98.90;;;;;;5034321;28;20029;-73
2021/08/07 05:00:53;;;;;;;3.15;1.30;;;17.60;98.70;;;;;;5034515;28;20034;-74
2021/08/07 05:03:18;;;;;;;2.30;1.10;;;17.60;98.80;;;;;;5034389;28;20447;-75
2021/08/07 05:05:44;;;;;;;3.10;1.00;;;17.60;98.70;;;;;;5034937;28;20116;-74
2021/08/07 05:08:10;;;;;;;2.33;1.10;;;17.60;98.70;;;;;;5034565;28;20029;-74
2021/08/07 05:10:36;;;;;;;2.53;1.60;;;17.60;98.70;;;;;;5033202;28;20029;-74
2021/08/07 05:13:02;;;;;;;3.70;1.20;;;17.60;98.70;;;;;;5034210;28;20067;-73
2021/08/07 05:15:28;;;;;;;7.50;1.67;;;17.60;98.80;;;;;;5033011;28;20064;-73
2021/08/07 05:17:54;;;;;;;1.85;1.10;;;17.60;98.70;;;;;;5033649;28;20076;-74
2021/08/07 05:20:20;;;;;;;4.13;1.45;;;17.70;98.70;;;;;;5033994;28;20040;-73
2021/08/07 05:22:46;;;;;;;2.58;1.40;;;17.70;98.70;;;;;;5032929;28;20049;-73
2021/08/07 05:25:12;;;;;;;2.55;1.13;;;17.70;98.70;;;;;;5033868;28;20068;-74
2021/08/07 05:27:37;;;;;;;5.22;1.38;;;17.70;98.60;;;;;;5033795;28;20039;-74
2021/08/07 05:30:05;;;;;;;3.25;1.30;;;17.70;98.60;;;;;;5034139;28;20025;-73
2021/08/07 05:32:30;;;;;;;7.45;4.55;;;17.70;98.70;;;;;;5033772;28;20585;-72
2021/08/07 05:34:56;;;;;;;7.72;4.45;;;17.70;98.70;;;;;;5033911;28;20062;-73
2021/08/07 05:37:22;;;;;;;6.22;3.75;;;17.70;98.60;;;;;;5033763;28;20121;-74
2021/08/07 05:39:47;;;;;;;5.15;3.42;;;17.70;98.60;;;;;;5033799;28;20049;-73
2021/08/07 05:42:13;;;;;;;5.40;2.88;;;17.70;98.50;;;;;;5033738;28;20518;-74
2021/08/07 05:44:38;;;;;;;3.05;1.20;;;17.80;98.40;;;;;;5033922;28;20025;-73
2021/08/07 05:47:04;;;;;;;2.35;1.35;;;17.80;98.40;;;;;;5033641;28;20038;-74
2021/08/07 05:49:29;;;;;;;3.47;1.38;;;17.80;98.40;;;;;;5033522;28;20144;-74
2021/08/07 05:51:55;;;;;;;1.85;1.08;;;17.80;98.30;;;;;;5033394;28;20510;-73
2021/08/07 05:54:20;;;;;;;1.92;1.20;;;17.80;98.30;;;;;;5032790;28;20032;-73
2021/08/07 05:56:47;;;;;;;5.57;1.13;;;17.80;98.20;;;;;;5033720;28;20611;-72
2021/08/07 05:59:13;;;;;;;2.45;1.05;;;17.80;98.30;;;;;;5033467;28;20025;-73
2021/08/07 06:01:38;;;;;;;1.45;1.17;;;17.90;98.30;;;;;;5032029;28;20040;-73
2021/08/07 06:04:04;;;;;;;2.88;1.23;;;17.90;98.20;;;;;;5032284;28;20040;-73
2021/08/07 06:06:29;;;;;;;4.93;1.35;;;17.90;98.10;;;;;;5032365;28;20514;-73
2021/08/07 06:08:55;;;;;;;2.83;1.48;;;17.90;98.10;;;;;;5033842;28;20459;-73
2021/08/07 06:11:20;;;;;;;1.05;0.95;;;17.90;98.10;;;;;;5033265;28;20403;-75
2021/08/07 06:13:46;;;;;;;1.58;0.88;;;18.00;98.20;;;;;;5031944;28;20068;-74
2021/08/07 06:16:12;;;;;;;7.57;1.33;;;18.20;98.20;;;;;;5033121;28;20434;-72
2021/08/07 06:18:37;;;;;;;3.47;1.33;;;18.10;98.10;;;;;;5032986;28;20038;-73
2021/08/07 06:21:03;;;;;;;4.15;2.60;;;18.10;97.90;;;;;;5033750;28;20037;-73
2021/08/07 06:23:28;;;;;;;3.88;2.75;;;18.10;97.80;;;;;;5032664;28;20045;-73
2021/08/07 06:25:54;;;;;;;3.47;1.60;;;18.10;97.80;;;;;;5031601;28;20056;-72
2021/08/07 06:28:20;;;;;;;4.13;1.25;;;18.20;97.70;;;;;;5032770;28;20029;-74
2021/08/07 06:30:46;;;;;;;4.20;1.10;;;18.20;97.70;;;;;;5032972;28;20046;-73
2021/08/07 06:33:12;;;;;;;6.72;1.30;;;18.30;97.80;;;;;;5033210;28;20499;-74
2021/08/07 06:35:38;;;;;;;3.22;0.88;;;18.40;97.70;;;;;;5032796;28;20065;-73
2021/08/07 06:38:04;;;;;;;4.55;1.10;;;18.40;97.50;;;;;;5032581;28;20053;-75
2021/08/07 06:40:29;;;;;;;5.28;1.17;;;18.50;97.40;;;;;;5032554;28;20037;-73
2021/08/07 06:42:56;;;;;;;3.25;1.02;;;18.50;97.40;;;;;;5032560;28;20029;-73
2021/08/07 06:45:21;;;;;;;4.13;1.23;;;18.60;97.50;;;;;;5032677;28;20511;-73
2021/08/07 06:47:47;;;;;;;0.75;0.75;;;18.70;97.40;;;;;;5032819;28;20116;-73
2021/08/07 06:50:13;;;;;;;2.38;1.42;;;18.70;97.50;;;;;;5032963;28;20037;-73
2021/08/07 06:52:38;;;;;;;2.25;0.95;;;18.70;97.50;;;;;;5032202;28;20029;-73
2021/08/07 06:55:05;;;;;;;2.13;1.00;;;18.70;97.70;;;;;;5032216;28;20044;-74
2021/08/07 06:57:30;;;;;;;2.17;1.00;;;18.70;97.50;;;;;;5032242;28;20021;-73
2021/08/07 06:59:59;;;;;;;3.30;1.00;;;18.70;97.50;;;;;;5031450;28;20083;-76
2021/08/07 07:02:25;;;;;;;3.00;1.08;;;18.70;97.50;;;;;;5032003;28;20036;-73
2021/08/07 07:04:50;;;;;;;2.33;1.13;;;18.70;97.60;;;;;;5031215;28;20030;-72
2021/08/07 07:07:16;;;;;;;2.50;1.25;;;18.70;97.60;;;;;;5031990;28;20033;-73
2021/08/07 07:09:41;;;;;;;1.95;1.08;;;18.80;97.60;;;;;;5032267;28;20092;-73
2021/08/07 07:12:07;;;;;;;2.80;1.65;;;18.80;97.60;;;;;;5032151;28;20124;-73
2021/08/07 07:14:32;;;;;;;4.32;1.33;;;18.90;97.60;;;;;;5031996;28;20033;-72
2021/08/07 07:16:58;;;;;;;3.58;0.98;;;18.90;97.60;;;;;;5031839;28;20055;-73
2021/08/07 07:19:25;;;;;;;2.90;1.20;;;19.00;97.60;;;;;;5030971;28;20085;-73
2021/08/07 07:21:51;;;;;;;2.55;1.20;;;19.20;97.30;;;;;;5031674;28;20025;-73
2021/08/07 07:24:17;;;;;;;4.63;1.33;;;19.20;97.00;;;;;;5031791;28;20052;-72
2021/08/07 07:26:43;;;;;;;2.92;0.95;;;19.30;97.00;;;;;;5032191;28;20479;-73
2021/08/07 07:29:08;;;;;;;4.38;1.42;;;19.50;96.90;;;;;;5031391;28;20112;-73
2021/08/07 07:31:34;;;;;;;3.20;1.15;;;19.60;96.50;;;;;;5031678;28;20128;-73
2021/08/07 07:33:59;;;;;;;2.30;1.00;;;19.70;96.60;;;;;;5031704;28;20471;-72
2021/08/07 07:36:25;;;;;;;1.70;0.80;;;19.90;96.10;;;;;;5031641;28;20099;-72
2021/08/07 07:38:50;;;;;;;2.45;1.00;;;20.00;96.00;;;;;;5032205;28;20018;-72
2021/08/07 07:41:16;;;;;;;5.47;1.25;;;20.20;96.00;;;;;;5031419;28;20392;-72
2021/08/07 07:43:42;;;;;;;1.73;1.08;;;20.30;95.60;;;;;;5031742;28;20026;-73
2021/08/07 07:46:09;;;;;;;1.45;0.90;;;20.40;95.20;;;;;;5031493;28;20564;-74
2021/08/07 07:48:35;;;;;;;1.80;0.95;;;20.40;95.30;;;;;;5031331;28;20033;-73
2021/08/07 07:51:00;;;;;;;3.50;1.15;;;20.50;95.30;;;;;;5031623;28;20026;-74
2021/08/07 07:53:26;;;;;;;2.40;1.20;;;20.50;95.10;;;;;;5031214;28;20030;-72
2021/08/07 07:55:52;;;;;;;5.90;1.63;;;20.60;95.10;;;;;;5031021;28;20061;-74
2021/08/07 07:58:17;;;;;;;2.55;1.00;;;20.60;94.90;;;;;;5031014;28;20045;-74
2021/08/07 08:00:43;;;;;;;1.67;0.98;;;20.50;94.80;;;;;;5030893;28;20026;-73
2021/08/07 08:03:08;;;;;;;6.15;0.82;;;20.60;95.00;;;;;;5031277;28;20068;-75
2021/08/07 08:05:34;;;;;;;2.30;0.77;;;20.60;94.90;;;;;;5031027;28;20041;-73
2021/08/07 08:08:00;;;;;;;4.70;1.05;;;20.70;94.90;;;;;;5029687;28;20133;-73
2021/08/07 08:10:26;;;;;;;2.38;0.90;;;20.70;95.00;;;;;;5031130;28;20041;-72
2021/08/07 08:12:52;;;;;;;1.33;0.80;;;20.70;94.90;;;;;;5030810;28;20502;-75
2021/08/07 08:15:18;;;;;;;5.30;1.00;;;20.80;94.90;;;;;;5030691;28;20037;-72
2021/08/07 08:17:43;;;;;;;2.58;1.08;;;20.80;94.70;;;;;;5031205;28;20021;-72
2021/08/07 08:20:10;;;;;;;3.55;1.25;;;20.80;94.90;;;;;;5030891;28;20586;-71
2021/08/07 08:22:35;;;;;;;3.95;1.13;;;20.80;94.80;;;;;;5030712;28;20045;-72
2021/08/07 08:25:02;;;;;;;1.50;0.85;;;20.70;94.70;;;;;;5030776;28;20094;-72
2021/08/07 08:27:28;;;;;;;4.28;1.10;;;20.70;94.80;;;;;;5030579;28;20119;-72
2021/08/07 08:29:56;;;;;;;1.85;0.88;;;20.70;94.90;;;;;;5031228;28;20083;-72
2021/08/07 08:32:22;;;;;;;4.03;0.88;;;21.00;95.10;;;;;;5030714;28;20022;-73
2021/08/07 08:34:47;;;;;;;1.25;0.90;;;21.80;94.70;;;;;;5030910;28;20144;-73
2021/08/07 08:37:13;;;;;;;2.45;1.02;;;22.90;93.80;;;;;;5030653;28;20029;-72
2021/08/07 08:39:39;;;;;;;2.22;0.88;;;23.90;92.00;;;;;;5030427;28;20037;-74
2021/08/07 08:42:06;;;;;;;4.07;0.70;;;25.10;91.90;;;;;;5031003;28;20056;-74
2021/08/07 08:44:37;;;;;;;0.82;0.52;;;26.30;88.50;;;;;;5030628;28;20145;-73
2021/08/07 08:47:04;;;;;;;2.50;0.57;;;27.30;87.90;;;;;;5030345;28;20483;-77
2021/08/07 08:49:32;;;;;;;1.27;0.80;;;28.00;83.10;;;;;;5030926;28;20333;-74
2021/08/07 08:52:01;;;;;;;6.45;0.75;;;28.60;81.00;;;;;;5030369;28;20038;-75
2021/08/07 08:54:27;;;;;;;1.23;0.70;;;29.00;79.80;;;;;;5030396;28;20033;-76
2021/08/07 08:56:53;;;;;;;3.28;1.10;;;29.30;79.40;;;;;;5031185;28;20289;-72
2021/08/07 08:59:20;;;;;;;1.58;0.70;;;29.90;76.30;;;;;;5030414;28;20029;-74
2021/08/07 09:01:47;;;;;;;0.90;0.70;;;30.40;74.60;;;;;;5030313;28;20034;-73
2021/08/07 09:04:12;;;;;;;1.55;0.75;;;30.90;71.30;;;;;;5029515;28;20436;-73
2021/08/07 09:06:38;;;;;;;1.75;0.65;;;30.90;69.30;;;;;;5030402;28;20044;-73
2021/08/07 09:09:08;;;;;;;2.22;0.90;;;31.40;69.00;;;;;;5029623;28;20037;-73
2021/08/07 09:11:34;;;;;;;1.30;0.60;;;32.00;68.20;;;;;;5030230;28;20053;-74
2021/08/07 09:14:24;;;;;;;1.15;0.65;;;32.30;67.20;;;;;;5030296;28;20121;-73
2021/08/07 09:17:20;;;;;;;2.25;0.63;;;32.20;65.10;;;;;;5029067;28;20479;-73
2021/08/07 09:19:47;;;;;;;1.42;0.88;;;31.40;65.10;;;;;;5029896;28;20038;-74
2021/08/07 09:22:14;;;;;;;1.20;0.50;;;31.40;66.00;;;;;;5030197;28;20073;-73
2021/08/07 09:24:59;;;;;;;2.37;0.70;;;32.10;62.50;;;;;;5030325;28;20045;-74
2021/08/07 09:27:28;;;;;;;2.28;0.70;;;32.40;61.70;;;;;;5030317;28;20263;-74
2021/08/07 09:29:53;;;;;;;4.38;0.68;;;32.70;60.40;;;;;;5034444;28;20029;-74
2021/08/07 09:32:19;;;;;;;1.75;0.60;;;32.70;59.80;;;;;;5033894;28;20120;-74
2021/08/07 09:35:01;;;;;;;2.17;0.80;;;32.70;58.00;;;;;;5034048;28;20116;-73
2021/08/07 09:37:28;;;;;;;1.58;0.80;;;32.00;58.40;;;;;;5034148;28;20025;-72
2021/08/07 09:39:53;;;;;;;3.80;0.90;;;31.20;60.70;;;;;;5033676;28;20040;-73
2021/08/07 09:42:19;;;;;;;5.05;1.02;;;30.80;60.80;;;;;;5033600;28;20017;-73
2021/08/07 09:44:58;;;;;;;2.05;0.80;;;30.30;60.20;;;;;;5033918;28;20025;-74
2021/08/07 09:47:23;;;;;;;4.80;0.88;;;30.70;61.70;;;;;;5033482;28;20048;-74
2021/08/07 09:49:49;;;;;;;4.25;0.90;;;30.70;60.80;;;;;;5033361;28;20491;-73
2021/08/07 09:52:14;;;;;;;2.28;0.70;;;30.50;60.30;;;;;;5033441;28;20037;-74
2021/08/07 09:54:42;;;;;;;1.48;0.68;;;30.00;60.10;;;;;;5033527;28;20037;-73
2021/08/07 09:57:12;;;;;;;2.22;0.65;;;29.20;60.50;;;;;;5032627;28;20029;-72
2021/08/07 09:59:48;;;;;;;1.40;0.90;;;28.50;63.00;;;;;;5033843;28;20041;-73
2021/08/07 10:02:42;;;;;;;2.20;0.90;;;28.10;65.50;;;;;;5033105;28;20032;-74
2021/08/07 10:05:11;;;;;;;2.80;1.00;;;27.50;66.30;;;;;;5033303;28;20036;-74
2021/08/07 10:07:38;;;;;;;3.05;0.80;;;27.10;67.30;;;;;;5033416;28;20038;-74
2021/08/07 10:10:23;;;;;;;1.58;0.80;;;26.70;68.50;;;;;;5033109;28;20044;-74
2021/08/07 10:12:49;;;;;;;2.28;0.80;;;26.20;70.00;;;;;;5032623;28;20037;-72
2021/08/07 10:15:15;;;;;;;2.60;0.90;;;26.00;71.20;;;;;;5032945;28;20057;-73
2021/08/07 10:17:42;;;;;;;2.78;1.25;;;25.60;72.00;;;;;;5033599;28;20111;-73
2021/08/07 10:20:11;;;;;;;2.45;0.70;;;25.50;73.00;;;;;;5033086;28;20150;-74
2021/08/07 10:22:37;;;;;;;1.05;0.88;;;25.40;73.50;;;;;;5032888;28;20053;-72
2021/08/07 10:25:04;;;;;;;2.20;0.98;;;25.60;74.20;;;;;;5032769;28;20372;-72
2021/08/07 10:27:32;;;;;;;;;;;25.60;74.00;;;;;;5033150;28;20534;-74
2021/08/07 10:30:00;;;;;;;1.95;0.80;;;25.70;74.10;;;;;;5033240;28;20398;-74
2021/08/07 10:32:28;;;;;;;5.95;4.28;;;25.50;73.40;;;;;;5032736;28;20033;-74
2021/08/07 10:34:54;;;;;;;4.20;1.25;;;25.70;74.20;;;;;;5032837;28;20482;-72
2021/08/07 10:37:21;;;;;;;1.30;0.75;;;25.90;73.60;;;;;;5032770;28;20029;-74
2021/08/07 10:39:47;;;;;;;1.10;0.63;;;26.10;73.50;;;;;;5032203;28;20044;-74
2021/08/07 10:42:16;;;;;;;1.20;0.70;;;26.30;72.10;;;;;;5032375;28;20021;-72
2021/08/07 10:44:44;;;;;;;9.07;1.08;;;26.20;72.50;;;;;;5032973;28;20040;-74
2021/08/07 10:47:10;;;;;;;;;;;26.10;72.40;;;;;;5031814;28;20034;-74
2021/08/07 10:49:47;;;;;;;1.52;0.85;;;25.90;72.60;;;;;;5032313;28;19917;-74
2021/08/07 10:52:22;;;;;;;1.95;0.60;;;25.90;73.40;;;;;;5032255;28;20041;-73
2021/08/07 10:54:49;;;;;;;5.28;3.28;;;26.10;73.30;;;;;;5032267;28;20045;-75
2021/08/07 10:57:34;;;;;;;3.10;1.00;;;26.30;72.60;;;;;;5032416;28;20452;-73
2021/08/07 11:00:13;;;;;;;0.95;0.68;;;26.40;72.30;;;;;;5032552;28;20010;-73
2021/08/07 11:02:39;;;;;;;4.63;0.90;;;26.50;72.70;;;;;;5031314;28;20041;-75
2021/08/07 11:05:04;;;;;;;2.63;0.98;;;26.60;70.70;;;;;;5032031;28;20056;-74
2021/08/07 11:07:31;;;;;;;4.65;0.80;;;26.10;69.60;;;;;;5031879;28;20053;-73
2021/08/07 11:10:11;;;;;;;4.93;0.70;;;26.10;70.40;;;;;;5032198;28;20393;-73
2021/08/07 11:12:45;;;;;;;1.13;0.65;;;26.00;70.40;;;;;;5031009;28;20372;-73
2021/08/07 11:15:40;;;;;;;5.30;0.85;;;25.90;70.80;;;;;;5032388;28;20022;-73
2021/08/07 11:18:25;;;;;;;2.72;0.70;;;25.90;70.80;;;;;;5031426;28;20041;-74
2021/08/07 11:20:51;;;;;;;5.18;0.73;;;25.90;71.30;;;;;;5012339;28;20033;-74
2021/08/07 11:23:18;;;;;;;2.42;0.70;;;25.80;71.60;;;;;;5028839;28;20173;-74
2021/08/07 11:25:52;;;;;;;6.28;1.77;;;25.80;70.40;;;;;;5031840;28;20026;-74
2021/08/07 11:28:19;;;;;;;1.08;0.45;;;25.60;69.60;;;;;;5031757;28;20101;-73
2021/08/07 11:30:45;;;;;;;2.40;0.82;;;25.60;71.00;;;;;;5031879;28;20037;-74
2021/08/07 11:33:11;;;;;;;2.35;0.60;;;25.60;70.70;;;;;;5032133;28;20347;-74
2021/08/07 11:35:42;;;;;;;5.85;1.00;;;25.60;70.70;;;;;;5031708;28;20048;-73
2021/08/07 11:38:14;;;;;;;6.07;2.10;;;25.60;70.30;;;;;;5031758;28;20060;-73
2021/08/07 11:40:47;;;;;;;1.63;0.57;;;25.60;71.10;;;;;;5031542;28;20033;-73
2021/08/07 11:43:18;;;;;;;2.00;0.95;;;25.60;70.30;;;;;;5031611;28;20037;-74
2021/08/07 11:45:59;;;;;;;5.20;0.88;;;25.60;70.50;;;;;;5030908;28;20133;-74
2021/08/07 11:48:34;;;;;;;1.42;0.70;;;25.60;69.50;;;;;;5031564;28;20037;-74
2021/08/07 11:51:02;;;;;;;3.33;1.02;;;25.60;70.20;;;;;;5031261;28;20036;-74
2021/08/07 11:53:28;;;;;;;4.10;0.70;;;25.60;70.00;;;;;;5031175;28;20047;-73
2021/08/07 11:56:05;;;;;;;4.32;1.77;;;25.50;68.40;;;;;;5031294;28;20029;-75
2021/08/07 11:58:32;;;;;;;1.95;0.80;;;25.40;68.80;;;;;;5031431;28;20043;-73
2021/08/07 12:01:00;;;;;;;3.70;1.10;;;25.40;68.90;;;;;;5031207;28;20060;-74
2021/08/07 12:03:27;;;;;;;3.75;0.80;;;25.40;69.50;;;;;;5030017;28;20029;-72
2021/08/07 12:05:54;;;;;;;5.28;1.10;;;25.30;69.30;;;;;;5031441;28;20053;-72
2021/08/07 12:08:21;;;;;;;5.28;1.55;;;25.30;68.30;;;;;;5030981;28;20086;-72
2021/08/07 12:10:52;;;;;;;1.38;0.88;;;25.20;68.00;;;;;;5030117;28;20047;-72
2021/08/07 12:13:27;;;;;;;1.77;0.98;;;25.10;68.50;;;;;;5031092;28;20045;-73
2021/08/07 12:15:56;;;;;;;4.30;0.75;;;25.10;69.20;;;;;;5031075;28;20051;-74
2021/08/07 12:18:22;;;;;;;3.33;0.85;;;25.10;69.10;;;;;;5031037;28;20106;-72
2021/08/07 12:20:48;;;;;;;3.60;1.05;;;25.00;67.90;;;;;;5031481;28;20069;-74
2021/08/07 12:23:14;;;;;;;3.13;0.77;;;25.00;67.90;;;;;;5029824;28;20088;-73
2021/08/07 12:25:41;;;;;;;3.17;0.80;;;25.00;68.00;;;;;;5030782;28;20417;-73
2021/08/07 12:28:14;;;;;;;3.65;1.27;;;24.90;68.10;;;;;;5030973;28;20359;-74
2021/08/07 12:31:01;;;;;;;5.95;1.58;;;24.90;68.50;;;;;;5030610;28;20036;-74
2021/08/07 12:33:37;;;;;;;1.98;1.20;;;24.80;68.90;;;;;;5030553;28;20026;-71
2021/08/07 12:36:20;;;;;;;3.58;0.80;;;24.60;68.80;;;;;;5030948;28;20032;-74
2021/08/07 12:38:48;;;;;;;2.85;1.13;;;24.50;68.60;;;;;;5030755;28;20475;-72
2021/08/07 12:41:18;;;;;;;1.42;0.68;;;24.40;69.20;;;;;;5030300;28;20053;-73
2021/08/07 12:43:43;;;;;;;2.75;1.00;;;24.30;69.30;;;;;;5030512;28;20034;-72
2021/08/07 12:46:18;;;;;;;1.73;0.90;;;24.20;72.40;;;;;;5030461;28;20033;-73
2021/08/07 12:48:55;;;;;;;2.78;0.80;;;24.10;73.00;;;;;;5030802;28;20037;-74
2021/08/07 12:51:21;;;;;;;;;;;24.00;73.90;;;;;;5031280;28;20045;-73